Time;durP1;ratioP1;P1;durP2;ratioP2;P2;SDS_P1;SDS_P2;PMS_P1;PMS_P2;Temp;Humidity;BMP_temperature;BMP_pressure;BME280_temperature;BME280_humidity;BME280_pressure;Samples;Min_cycle;Max_cycle;Signal;HPM_P1;HPM_P2
2022/03/15 00:00:27;;;;;;;0.00;0.00;;;6.70;83.70;;;;;;5040728;28;20021;-69
2022/03/15 00:02:54;;;;;;;0.00;0.00;;;6.60;84.30;;;;;;5058021;28;20079;-70
2022/03/15 00:05:20;;;;;;;0.00;0.00;;;6.60;84.70;;;;;;5040896;28;20088;-69
2022/03/15 00:07:47;;;;;;;0.00;0.00;;;6.60;84.70;;;;;;5040144;28;20212;-68
2022/03/15 00:10:14;;;;;;;0.00;0.00;;;6.50;85.30;;;;;;5040460;28;20044;-70
2022/03/15 00:12:41;;;;;;;0.00;0.00;;;6.60;85.30;;;;;;5040490;28;20232;-68
2022/03/15 00:15:08;;;;;;;0.00;0.00;;;6.50;85.60;;;;;;5041004;28;20017;-68
2022/03/15 00:17:35;;;;;;;0.00;0.00;;;6.50;86.40;;;;;;5040006;28;20082;-73
2022/03/15 00:20:02;;;;;;;0.00;0.00;;;6.50;85.90;;;;;;5040911;28;20138;-70
2022/03/15 00:22:30;;;;;;;0.00;0.00;;;6.50;86.50;;;;;;5040476;28;20091;-70
2022/03/15 00:24:56;;;;;;;0.00;0.00;;;6.40;85.80;;;;;;5040315;28;20108;-70
2022/03/15 00:27:21;;;;;;;0.00;0.00;;;6.40;85.40;;;;;;5058577;28;20028;-74
2022/03/15 00:29:47;;;;;;;0.00;0.00;;;6.40;85.10;;;;;;5058106;28;20069;-71
2022/03/15 00:32:17;;;;;;;0.00;0.00;;;6.40;85.80;;;;;;5058353;28;20307;-69
2022/03/15 00:34:43;;;;;;;0.00;0.00;;;6.30;84.60;;;;;;5040296;28;20024;-69
2022/03/15 00:37:09;;;;;;;0.00;0.00;;;6.30;84.30;;;;;;5057997;28;20032;-71
2022/03/15 00:39:35;;;;;;;0.00;0.00;;;6.30;83.70;;;;;;5058042;28;20051;-68
2022/03/15 00:42:01;;;;;;;0.00;0.00;;;6.20;83.30;;;;;;5041050;28;20024;-71
2022/03/15 00:44:27;;;;;;;0.00;0.00;;;6.30;84.00;;;;;;5058615;28;20017;-70
2022/03/15 00:46:52;;;;;;;0.00;0.00;;;6.30;84.90;;;;;;5040038;28;20098;-68
2022/03/15 00:49:18;;;;;;;0.00;0.00;;;6.20;85.00;;;;;;5058131;28;20027;-68
2022/03/15 00:51:44;;;;;;;0.00;0.00;;;6.20;84.90;;;;;;5058036;28;20017;-69
2022/03/15 00:54:10;;;;;;;0.00;0.00;;;6.20;85.30;;;;;;5058411;28;20377;-68
2022/03/15 00:56:36;;;;;;;0.00;0.00;;;6.20;85.70;;;;;;5039794;28;20021;-68
2022/03/15 00:59:02;;;;;;;0.00;0.00;;;6.10;86.60;;;;;;5040526;28;20283;-74
2022/03/15 01:01:29;;;;;;;0.00;0.00;;;6.10;87.10;;;;;;5040166;28;20188;-69
2022/03/15 01:03:55;;;;;;;0.00;0.00;;;6.10;86.80;;;;;;5057791;28;20017;-68
2022/03/15 01:06:21;;;;;;;0.00;0.00;;;6.00;86.50;;;;;;5040585;28;20258;-70
2022/03/15 01:08:47;;;;;;;0.00;0.00;;;6.00;86.00;;;;;;5039753;28;20044;-68
2022/03/15 01:11:13;;;;;;;0.00;0.00;;;6.00;85.60;;;;;;5040361;28;20308;-68
2022/03/15 01:13:39;;;;;;;0.00;0.00;;;6.00;85.00;;;;;;5039489;28;20044;-68
2022/03/15 01:16:05;;;;;;;0.00;0.00;;;5.90;84.80;;;;;;5058088;28;20056;-69
2022/03/15 01:18:31;;;;;;;0.00;0.00;;;5.90;84.70;;;;;;5040048;28;20025;-71
2022/03/15 01:20:56;;;;;;;0.00;0.00;;;5.90;84.40;;;;;;5039964;28;20056;-67
2022/03/15 01:23:22;;;;;;;0.00;0.00;;;5.90;84.00;;;;;;5059850;28;20270;-72
2022/03/15 01:25:48;;;;;;;0.00;0.00;;;5.90;84.70;;;;;;5061574;28;20024;-67
2022/03/15 01:28:14;;;;;;;0.00;0.00;;;5.90;84.50;;;;;;5043996;28;20024;-69
2022/03/15 01:30:40;;;;;;;0.00;0.00;;;5.90;85.20;;;;;;5043633;28;20021;-72
2022/03/15 01:33:06;;;;;;;0.00;0.00;;;5.90;86.10;;;;;;5062012;28;20271;-69
2022/03/15 01:35:32;;;;;;;0.00;0.00;;;5.90;85.60;;;;;;5043980;28;20329;-74
2022/03/15 01:37:58;;;;;;;0.00;0.00;;;5.90;86.70;;;;;;5043220;28;20415;-69
2022/03/15 01:40:23;;;;;;;0.00;0.00;;;5.80;87.00;;;;;;5043639;28;20029;-68
2022/03/15 01:42:49;;;;;;;0.00;0.00;;;5.80;88.20;;;;;;5042738;28;20067;-71
2022/03/15 01:45:15;;;;;;;0.00;0.00;;;5.80;88.80;;;;;;5043792;28;20255;-69
2022/03/15 01:47:43;;;;;;;0.00;0.00;;;5.70;88.80;;;;;;5042951;28;20296;-71
2022/03/15 01:50:09;;;;;;;0.00;0.00;;;5.70;88.30;;;;;;5061527;28;20070;-69
2022/03/15 01:52:35;;;;;;;0.00;0.00;;;5.60;88.00;;;;;;5060949;28;20017;-73
2022/03/15 01:55:01;;;;;;;0.00;0.00;;;5.60;87.10;;;;;;5043453;28;20326;-69
2022/03/15 01:57:45;;;;;;;0.00;0.00;;;5.60;88.00;;;;;;5043504;28;20108;-69
2022/03/15 02:00:11;;;;;;;0.00;0.00;;;5.60;89.00;;;;;;5043361;28;20179;-72
2022/03/15 02:02:38;;;;;;;0.00;0.00;;;5.60;89.40;;;;;;5060587;28;20021;-73
2022/03/15 02:05:05;;;;;;;0.00;0.00;;;5.60;89.10;;;;;;5061113;28;20017;-68
2022/03/15 02:07:30;;;;;;;0.00;0.00;;;5.50;88.90;;;;;;5043181;28;20104;-69
2022/03/15 02:09:56;;;;;;;0.00;0.00;;;5.50;88.30;;;;;;5060754;28;20303;-71
2022/03/15 02:12:22;;;;;;;0.00;0.00;;;5.50;87.60;;;;;;5043122;28;20096;-73
2022/03/15 02:14:48;;;;;;;0.00;0.00;;;5.50;87.50;;;;;;5060489;28;20044;-70
2022/03/15 02:17:13;;;;;;;0.00;0.00;;;5.50;87.70;;;;;;5042726;28;20025;-69
2022/03/15 02:19:41;;;;;;;0.00;0.00;;;5.50;88.10;;;;;;5060398;28;20142;-68
2022/03/15 02:22:07;;;;;;;0.00;0.00;;;5.50;87.40;;;;;;5059227;28;20027;-69
2022/03/15 02:24:34;;;;;;;0.00;0.00;;;5.50;87.50;;;;;;5043028;28;20264;-73
2022/03/15 02:27:23;;;;;;;0.00;0.00;;;5.40;87.70;;;;;;5043010;28;20017;-72
2022/03/15 02:29:49;;;;;;;0.00;0.00;;;5.40;88.60;;;;;;5042574;28;20028;-69
2022/03/15 02:32:15;;;;;;;0.00;0.00;;;5.40;89.00;;;;;;5059510;28;20017;-69
2022/03/15 02:34:41;;;;;;;0.00;0.00;;;5.40;89.00;;;;;;5042078;28;20035;-73
2022/03/15 02:37:07;;;;;;;0.00;0.00;;;5.30;89.60;;;;;;5060531;28;20025;-70
2022/03/15 02:39:33;;;;;;;0.00;0.00;;;5.30;89.50;;;;;;5042318;28;20031;-73
2022/03/15 02:41:59;;;;;;;0.00;0.00;;;5.30;89.10;;;;;;5059723;28;20060;-69
2022/03/15 02:44:24;;;;;;;0.00;0.00;;;5.30;89.20;;;;;;5060424;28;20025;-72
2022/03/15 02:47:09;;;;;;;0.00;0.00;;;5.20;88.60;;;;;;5042173;28;20017;-68
2022/03/15 02:49:35;;;;;;;0.00;0.00;;;5.20;88.70;;;;;;5060007;28;20027;-73
2022/03/15 02:52:01;;;;;;;0.00;0.00;;;5.20;88.70;;;;;;5060336;28;20406;-71
2022/03/15 02:54:26;;;;;;;0.00;0.00;;;5.20;89.40;;;;;;5042208;28;20100;-68
2022/03/15 02:56:52;;;;;;;0.00;0.00;;;5.20;89.70;;;;;;5041785;28;20021;-72
2022/03/15 02:59:18;;;;;;;0.00;0.00;;;5.20;89.40;;;;;;5042218;28;20139;-68
2022/03/15 03:01:45;;;;;;;0.00;0.00;;;5.20;90.00;;;;;;5041551;28;20063;-68
2022/03/15 03:04:11;;;;;;;0.00;0.00;;;5.20;90.20;;;;;;5042467;28;20092;-70
2022/03/15 03:06:38;;;;;;;0.00;0.00;;;5.10;90.10;;;;;;5041911;28;20021;-72
2022/03/15 03:09:04;;;;;;;0.00;0.00;;;5.10;90.00;;;;;;5059724;28;20028;-68
2022/03/15 03:11:31;;;;;;;0.00;0.00;;;5.20;90.20;;;;;;5042078;28;20055;-67
2022/03/15 03:13:58;;;;;;;0.00;0.00;;;5.10;90.70;;;;;;5059254;28;20145;-68
2022/03/15 03:16:26;;;;;;;0.00;0.00;;;5.10;90.70;;;;;;5041834;28;20020;-67
2022/03/15 03:18:53;;;;;;;0.00;0.00;;;5.10;90.60;;;;;;5041098;28;20081;-73
2022/03/15 03:21:20;;;;;;;0.00;0.00;;;5.10;90.50;;;;;;5060038;28;20259;-68
2022/03/15 03:23:46;;;;;;;0.00;0.00;;;5.10;90.40;;;;;;5040815;28;20049;-68
2022/03/15 03:26:11;;;;;;;0.00;0.00;;;5.10;90.30;;;;;;5042048;28;20045;-72
2022/03/15 03:28:38;;;;;;;0.00;0.00;;;5.00;90.20;;;;;;5041315;28;20048;-73
2022/03/15 03:31:07;;;;;;;0.00;0.00;;;5.00;90.50;;;;;;5041851;28;20024;-68
2022/03/15 03:33:34;;;;;;;0.00;0.00;;;5.00;90.90;;;;;;5041675;28;20025;-68
2022/03/15 03:36:00;;;;;;;0.00;0.00;;;5.00;91.10;;;;;;5041237;28;20038;-68
2022/03/15 03:38:26;;;;;;;0.00;0.00;;;5.00;91.00;;;;;;5041299;28;20036;-70
2022/03/15 03:40:52;;;;;;;0.00;0.00;;;5.00;90.80;;;;;;5058339;28;20358;-73
2022/03/15 03:43:18;;;;;;;0.00;0.00;;;5.00;90.70;;;;;;5041645;28;20268;-69
2022/03/15 03:45:44;;;;;;;0.00;0.00;;;4.90;90.60;;;;;;5058012;28;20082;-69
2022/03/15 03:48:10;;;;;;;0.00;0.00;;;4.90;90.70;;;;;;5041548;28;20025;-69
2022/03/15 03:50:36;;;;;;;0.00;0.00;;;4.90;90.80;;;;;;5041432;28;20021;-74
2022/03/15 03:53:05;;;;;;;0.00;0.00;;;4.90;91.00;;;;;;5059016;28;20078;-73
2022/03/15 03:55:32;;;;;;;0.00;0.00;;;4.90;91.10;;;;;;5027831;23;20053;-75
2022/03/15 03:57:57;;;;;;;0.00;0.00;;;4.90;91.20;;;;;;4995985;28;20393;-80
2022/03/15 04:00:23;;;;;;;0.00;0.00;;;4.90;91.00;;;;;;5000586;28;20050;-81
2022/03/15 04:02:50;;;;;;;0.00;0.00;;;4.90;90.90;;;;;;4997045;28;20038;-81
2022/03/15 04:05:16;;;;;;;0.00;0.00;;;4.90;91.50;;;;;;4995754;28;20018;-80
2022/03/15 04:07:43;;;;;;;0.00;0.00;;;4.90;91.60;;;;;;4977501;28;20333;-74
2022/03/15 04:10:09;;;;;;;0.00;0.00;;;4.90;91.80;;;;;;4996324;28;20038;-80
2022/03/15 04:12:36;;;;;;;0.00;0.00;;;4.80;91.70;;;;;;4999719;28;20312;-75
2022/03/15 04:15:06;;;;;;;0.00;0.00;;;4.80;91.80;;;;;;4978965;28;20038;-76
2022/03/15 04:17:32;;;;;;;0.00;0.00;;;4.80;91.80;;;;;;4998560;28;20022;-72
2022/03/15 04:19:58;;;;;;;0.00;0.00;;;4.80;92.10;;;;;;4994729;28;20085;-77
2022/03/15 04:22:24;;;;;;;0.00;0.00;;;4.80;91.70;;;;;;4996024;28;20030;-78
2022/03/15 04:24:49;;;;;;;0.00;0.00;;;4.80;91.90;;;;;;4996499;28;20301;-78
2022/03/15 04:27:16;;;;;;;0.00;0.00;;;4.70;92.20;;;;;;4977674;28;20298;-77
2022/03/15 04:29:42;;;;;;;0.00;0.00;;;4.80;92.30;;;;;;4995734;28;20498;-74
2022/03/15 04:34:53;;;;;;;0.00;0.00;;;4.70;92.50;;;;;;4998385;28;20041;-78
2022/03/15 04:37:23;;;;;;;0.00;0.00;;;4.70;92.50;;;;;;4996905;28;20248;-78
2022/03/15 04:39:49;;;;;;;0.00;0.00;;;4.70;92.30;;;;;;4994456;28;20359;-75
2022/03/15 04:42:15;;;;;;;0.00;0.00;;;4.70;92.40;;;;;;4998420;28;20057;-79
2022/03/15 04:44:41;;;;;;;0.00;0.00;;;4.70;92.30;;;;;;4998616;28;20034;-74
2022/03/15 04:47:07;;;;;;;0.00;0.00;;;4.70;92.30;;;;;;4994563;28;20030;-77
2022/03/15 04:49:34;;;;;;;0.00;0.00;;;4.70;92.30;;;;;;4981560;28;20029;-79
2022/03/15 04:52:02;;;;;;;0.00;0.00;;;4.70;92.30;;;;;;4996581;28;20042;-80
2022/03/15 04:54:30;;;;;;;0.00;0.00;;;4.70;92.60;;;;;;4995440;28;20037;-81
2022/03/15 04:56:56;;;;;;;0.00;0.00;;;4.70;92.60;;;;;;4998966;28;20125;-79
2022/03/15 04:59:22;;;;;;;0.00;0.00;;;4.60;92.70;;;;;;4994005;28;20045;-74
2022/03/15 05:01:48;;;;;;;0.00;0.00;;;4.60;92.50;;;;;;5000163;28;20799;-82
2022/03/15 05:04:14;;;;;;;0.00;0.00;;;4.60;92.40;;;;;;4998027;28;20058;-80
2022/03/15 05:06:40;;;;;;;0.00;0.00;;;4.60;92.40;;;;;;4982631;28;20057;-75
2022/03/15 05:09:06;;;;;;;0.00;0.00;;;4.60;92.60;;;;;;4997708;28;20079;-79
2022/03/15 05:11:32;;;;;;;0.00;0.00;;;4.60;92.60;;;;;;4964297;28;20065;-73
2022/03/15 05:13:58;;;;;;;0.00;0.00;;;4.60;92.60;;;;;;5000829;28;20080;-80
2022/03/15 05:16:24;;;;;;;0.00;0.00;;;4.50;92.60;;;;;;5006952;28;20244;-80
2022/03/15 05:18:53;;;;;;;0.00;0.00;;;4.60;92.60;;;;;;4999409;28;20030;-76
2022/03/15 05:21:20;;;;;;;0.00;0.00;;;4.50;92.60;;;;;;5008777;28;20028;-78
2022/03/15 05:23:47;;;;;;;0.00;0.00;;;4.50;92.80;;;;;;4981969;28;20045;-79
2022/03/15 05:26:15;;;;;;;0.00;0.00;;;4.60;92.80;;;;;;5000623;28;20033;-79
2022/03/15 05:28:42;;;;;;;0.00;0.00;;;4.60;92.90;;;;;;4985117;28;20121;-75
2022/03/15 05:31:08;;;;;;;0.00;0.00;;;4.60;92.80;;;;;;4995001;28;20033;-77
2022/03/15 05:33:34;;;;;;;0.00;0.00;;;4.60;92.70;;;;;;4983777;28;20133;-79
2022/03/15 05:36:00;;;;;;;0.00;0.00;;;4.60;92.80;;;;;;4997722;28;20075;-80
2022/03/15 05:38:27;;;;;;;0.00;0.00;;;4.60;93.00;;;;;;4998872;28;20257;-79
2022/03/15 05:40:53;;;;;;;0.00;0.00;;;4.60;93.00;;;;;;5000798;28;20030;-81
2022/03/15 05:43:19;;;;;;;0.00;0.00;;;4.60;92.90;;;;;;5000969;28;20036;-83
2022/03/15 05:45:45;;;;;;;0.00;0.00;;;4.70;92.90;;;;;;5000628;28;20245;-82
2022/03/15 05:48:11;;;;;;;0.00;0.00;;;4.70;92.60;;;;;;4998616;28;20105;-75
2022/03/15 05:50:37;;;;;;;0.00;0.00;;;4.70;92.90;;;;;;5005901;28;20021;-80
2022/03/15 05:53:06;;;;;;;0.00;0.00;;;4.70;92.40;;;;;;4997222;28;20038;-74
2022/03/15 05:55:31;;;;;;;;;;;4.80;92.50;;;;;;4959773;28;1118915;-73
2022/03/15 05:57:58;;;;;;;0.00;0.00;;;4.90;92.60;;;;;;4999369;28;19980;-77
2022/03/15 06:00:24;;;;;;;0.00;0.00;;;4.90;93.00;;;;;;4999742;28;20485;-74
2022/03/15 06:02:50;;;;;;;0.00;0.00;;;4.90;92.80;;;;;;5001457;28;20197;-76
2022/03/15 06:05:16;;;;;;;0.00;0.00;;;4.90;93.20;;;;;;5001995;28;20202;-74
2022/03/15 06:07:49;;;;;;;0.00;0.00;;;5.00;93.00;;;;;;5000620;28;20884;-73
2022/03/15 06:10:17;;;;;;;0.00;0.00;;;5.00;93.10;;;;;;5000566;28;20019;-74
2022/03/15 06:12:43;;;;;;;0.00;0.00;;;5.00;92.90;;;;;;5004354;28;20029;-72
2022/03/15 06:15:10;;;;;;;0.00;0.00;;;5.10;92.80;;;;;;4989157;28;20355;-76
2022/03/15 06:17:52;;;;;;;0.00;0.00;;;5.10;92.90;;;;;;5007011;28;20029;-78
2022/03/15 06:20:19;;;;;;;0.00;0.00;;;5.20;93.10;;;;;;5004441;28;20035;-79
2022/03/15 06:22:46;;;;;;;0.00;0.00;;;5.20;93.10;;;;;;5005276;28;21427;-76
2022/03/15 06:25:12;;;;;;;0.00;0.00;;;5.30;92.80;;;;;;5002407;28;20037;-76
2022/03/15 06:27:38;;;;;;;0.00;0.00;;;5.40;93.20;;;;;;5000997;28;20042;-76
2022/03/15 06:30:05;;;;;;;0.00;0.00;;;5.40;93.30;;;;;;5005646;28;20052;-78
2022/03/15 10:56:59;;;;;;;0.00;0.00;;;13.40;67.40;;;;;;5139044;27;20446;-80
2022/03/15 10:59:26;;;;;;;0.00;0.00;;;13.50;72.90;;;;;;5115251;28;20175;-72
2022/03/15 11:01:52;;;;;;;0.00;0.00;;;13.60;68.50;;;;;;5119986;28;20023;-75
2022/03/15 11:04:19;;;;;;;0.00;0.00;;;13.80;68.80;;;;;;5119987;28;20023;-81
2022/03/15 11:06:49;;;;;;;0.00;0.00;;;13.90;69.40;;;;;;5123086;28;20040;-79
2022/03/15 11:09:28;;;;;;;0.00;0.00;;;13.90;71.90;;;;;;5103550;28;20046;-81
2022/03/15 11:12:05;;;;;;;0.00;0.00;;;13.90;68.80;;;;;;5102130;28;20363;-82
2022/03/15 11:14:42;;;;;;;0.00;0.00;;;13.90;66.70;;;;;;5109778;28;20603;-81
2022/03/15 11:17:28;;;;;;;0.00;0.00;;;14.00;64.90;;;;;;5117476;28;20153;-80
2022/03/15 11:19:54;;;;;;;0.00;0.00;;;14.00;64.90;;;;;;5120780;28;20033;-80
2022/03/15 11:22:27;;;;;;;0.00;0.00;;;14.10;66.20;;;;;;5118608;28;20275;-79
2022/03/15 11:25:02;;;;;;;0.00;0.00;;;14.10;67.10;;;;;;5122607;28;20023;-76
2022/03/15 11:27:32;;;;;;;0.00;0.00;;;14.00;65.50;;;;;;5099651;27;20414;-77
2022/03/15 11:30:02;;;;;;;0.00;0.00;;;14.00;67.10;;;;;;5117429;28;20019;-82
2022/03/15 11:32:33;;;;;;;0.00;0.00;;;14.00;66.60;;;;;;5101561;28;20027;-78
2022/03/15 11:34:59;;;;;;;0.00;0.00;;;14.00;71.80;;;;;;5119104;28;20339;-77
2022/03/15 11:37:25;;;;;;;0.00;0.00;;;14.00;70.50;;;;;;5122399;28;20011;-78
2022/03/15 11:39:52;;;;;;;0.00;0.00;;;14.00;69.70;;;;;;5120410;28;20402;-75
2022/03/15 11:42:19;;;;;;;0.00;0.00;;;13.90;69.60;;;;;;5117572;28;20027;-78
2022/03/15 11:44:55;;;;;;;0.00;0.00;;;14.00;66.50;;;;;;5114777;28;20352;-81
2022/03/15 11:47:38;;;;;;;0.00;0.00;;;14.00;68.20;;;;;;5115949;28;20095;-79
2022/03/15 11:50:37;;;;;;;0.00;0.00;;;14.00;68.90;;;;;;5115385;28;20020;-78
2022/03/15 11:53:20;;;;;;;0.00;0.00;;;14.00;73.80;;;;;;5095320;28;20039;-80
2022/03/15 11:56:15;;;;;;;0.00;0.00;;;13.90;70.60;;;;;;5113685;28;20056;-80
2022/03/15 11:58:52;;;;;;;0.00;0.00;;;13.90;68.50;;;;;;5042752;28;20125;-79
2022/03/15 12:01:19;;;;;;;0.00;0.00;;;14.00;66.80;;;;;;5114663;28;20019;-75
2022/03/15 12:03:51;;;;;;;0.00;0.00;;;14.10;68.30;;;;;;5116058;28;20051;-80
2022/03/15 12:06:27;;;;;;;0.00;0.00;;;14.20;67.60;;;;;;5115744;28;20020;-79
2022/03/15 12:08:56;;;;;;;0.00;0.00;;;14.40;69.40;;;;;;5097062;28;20023;-80
2022/03/15 12:11:41;;;;;;;0.00;0.00;;;14.70;65.30;;;;;;5101966;28;20023;-80
2022/03/15 12:14:11;;;;;;;0.00;0.00;;;14.90;66.10;;;;;;5101755;28;20031;-79
2022/03/15 12:16:42;;;;;;;0.00;0.00;;;15.20;63.90;;;;;;5100022;28;20107;-80
2022/03/15 12:19:27;;;;;;;0.00;0.00;;;15.40;63.90;;;;;;5101980;28;20032;-80
2022/03/15 12:21:57;;;;;;;0.00;0.00;;;15.50;64.40;;;;;;5099837;28;20019;-81
2022/03/15 12:24:36;;;;;;;0.00;0.00;;;15.60;64.60;;;;;;5102672;28;20077;-81
2022/03/15 12:27:03;;;;;;;0.00;0.00;;;15.60;65.80;;;;;;5081234;28;20028;-80
2022/03/15 12:29:30;;;;;;;0.00;0.00;;;15.60;66.00;;;;;;5082300;28;20036;-75
2022/03/15 12:32:08;;;;;;;0.00;0.00;;;15.50;61.70;;;;;;5094041;28;20016;-82
2022/03/15 12:34:34;;;;;;;0.00;0.00;;;15.40;68.30;;;;;;5099988;28;20092;-82
2022/03/15 12:37:00;;;;;;;0.00;0.00;;;15.40;67.50;;;;;;5099821;28;20103;-81
2022/03/15 12:39:34;;;;;;;0.00;0.00;;;15.20;65.10;;;;;;5080724;28;20192;-80
2022/03/15 12:42:10;;;;;;;0.00;0.00;;;15.20;64.10;;;;;;5100141;28;20111;-80
2022/03/15 12:44:51;;;;;;;0.00;0.00;;;15.20;63.10;;;;;;5080765;28;20129;-80
2022/03/15 12:47:19;;;;;;;0.00;0.00;;;15.10;64.00;;;;;;5082910;28;20016;-76
2022/03/15 12:50:05;;;;;;;0.00;0.00;;;15.10;64.00;;;;;;5085076;28;20503;-79
2022/03/15 12:52:45;;;;;;;0.00;0.00;;;15.10;65.20;;;;;;5098853;28;20569;-80
2022/03/15 12:55:34;;;;;;;0.00;0.00;;;15.00;64.20;;;;;;5099241;28;20220;-80
2022/03/15 12:58:06;;;;;;;0.00;0.00;;;14.90;64.70;;;;;;5081509;28;20131;-80
2022/03/15 13:00:35;;;;;;;0.00;0.00;;;14.90;62.70;;;;;;5100814;28;20028;-80
2022/03/15 13:03:02;;;;;;;0.00;0.00;;;14.80;64.10;;;;;;5101564;28;20045;-80
2022/03/15 13:05:29;;;;;;;0.00;0.00;;;14.70;69.40;;;;;;5093444;28;20036;-80
2022/03/15 13:07:59;;;;;;;0.00;0.00;;;14.60;65.90;;;;;;5100072;28;20059;-81
2022/03/15 13:10:56;;;;;;;0.00;0.00;;;14.70;62.50;;;;;;5099921;28;20068;-80
2022/03/15 13:13:19;;;;;;;0.00;0.00;;;14.60;62.60;;;;;;5097850;28;20040;-80
2022/03/15 13:16:00;;;;;;;0.00;0.00;;;14.50;62.90;;;;;;5100756;28;20323;-80
2022/03/15 13:18:26;;;;;;;0.00;0.00;;;14.50;65.60;;;;;;5097632;28;20369;-79
2022/03/15 13:21:01;;;;;;;0.00;0.00;;;14.50;67.00;;;;;;5093933;28;20299;-80
2022/03/15 13:23:29;;;;;;;0.00;0.00;;;14.40;66.10;;;;;;5093106;28;20311;-79
2022/03/15 13:26:08;;;;;;;0.00;0.00;;;14.40;64.40;;;;;;5097192;28;20016;-79
2022/03/15 13:28:42;;;;;;;0.00;0.00;;;14.40;63.50;;;;;;5097987;28;20152;-81
2022/03/15 13:31:10;;;;;;;0.00;0.00;;;14.30;66.60;;;;;;5098260;28;20096;-78
2022/03/15 13:33:41;;;;;;;0.00;0.00;;;14.20;65.90;;;;;;5096790;28;20073;-79
2022/03/15 13:36:14;;;;;;;0.00;0.00;;;14.20;65.00;;;;;;5079694;28;20036;-79
2022/03/15 13:38:48;;;;;;;0.00;0.00;;;14.30;66.20;;;;;;5102689;28;20020;-79
2022/03/15 13:41:16;;;;;;;0.00;0.00;;;14.30;65.70;;;;;;5097972;28;20020;-75
2022/03/15 13:43:44;;;;;;;0.00;0.00;;;14.30;66.30;;;;;;5080336;28;20027;-75
2022/03/15 13:46:12;;;;;;;0.00;0.00;;;14.30;65.60;;;;;;5098988;28;20043;-75
2022/03/15 13:48:40;;;;;;;0.00;0.00;;;14.30;63.30;;;;;;5081677;28;20407;-80
2022/03/15 13:51:22;;;;;;;0.00;0.00;;;14.40;64.40;;;;;;5098674;28;20039;-79
2022/03/15 13:53:48;;;;;;;0.00;0.00;;;14.30;64.00;;;;;;5092931;28;20360;-79
2022/03/15 13:59:06;;;;;;;0.00;0.00;;;14.20;66.30;;;;;;5096694;28;20035;-80
2022/03/15 14:01:34;;;;;;;0.00;0.00;;;14.10;66.20;;;;;;5098730;28;20043;-80
2022/03/15 14:04:04;;;;;;;0.00;0.00;;;14.20;64.80;;;;;;5100151;28;20375;-81
2022/03/15 14:06:35;;;;;;;0.00;0.00;;;14.10;66.20;;;;;;5092509;28;20027;-80
2022/03/15 14:09:04;;;;;;;0.00;0.00;;;14.20;63.70;;;;;;5095928;28;20040;-80
2022/03/15 14:11:35;;;;;;;0.00;0.00;;;14.20;63.00;;;;;;5097415;28;20023;-79
2022/03/15 14:14:06;;;;;;;0.00;0.00;;;14.20;65.40;;;;;;5096693;28;20550;-80
2022/03/15 14:16:39;;;;;;;0.00;0.00;;;14.20;63.90;;;;;;5098423;28;20035;-76
2022/03/15 14:19:09;;;;;;;0.00;0.00;;;14.00;67.00;;;;;;5097119;28;20024;-77
2022/03/15 14:21:42;;;;;;;0.00;0.00;;;14.00;65.70;;;;;;5097399;28;20024;-79
2022/03/15 14:24:25;;;;;;;0.00;0.00;;;13.90;68.00;;;;;;5097362;28;20030;-79
2022/03/15 14:26:59;;;;;;;0.00;0.00;;;13.90;67.60;;;;;;5098986;28;20030;-80
2022/03/15 14:29:27;;;;;;;0.00;0.00;;;13.90;68.30;;;;;;5091247;28;20076;-79
2022/03/15 14:32:09;;;;;;;0.00;0.00;;;14.00;65.20;;;;;;5082699;28;20034;-79
2022/03/15 14:34:38;;;;;;;0.00;0.00;;;14.00;65.20;;;;;;5078989;28;20596;-80
2022/03/15 14:37:08;;;;;;;0.00;0.00;;;14.00;67.70;;;;;;5097958;28;20015;-79
2022/03/15 14:39:37;;;;;;;0.00;0.00;;;13.90;65.70;;;;;;5096579;28;20031;-80
2022/03/15 14:42:05;;;;;;;0.00;0.00;;;13.90;67.90;;;;;;5091420;28;20023;-79
2022/03/15 14:44:35;;;;;;;;;;;13.90;67.60;;;;;;5097179;28;20036;-74
2022/03/15 14:47:06;;;;;;;0.00;0.00;;;13.80;68.20;;;;;;5098112;28;19911;-74
2022/03/15 14:49:32;;;;;;;0.00;0.00;;;13.80;68.20;;;;;;5091761;28;20036;-75
2022/03/15 14:52:02;;;;;;;0.00;0.00;;;13.80;65.00;;;;;;5080476;28;20099;-80
2022/03/15 14:54:28;;;;;;;0.00;0.00;;;13.80;67.70;;;;;;5091289;28;20034;-76
2022/03/15 14:56:58;;;;;;;0.00;0.00;;;13.80;68.60;;;;;;5095955;28;20055;-76
2022/03/15 14:59:29;;;;;;;0.00;0.00;;;13.70;67.50;;;;;;5080964;28;20020;-76
2022/03/15 15:01:57;;;;;;;0.00;0.00;;;13.70;70.60;;;;;;5098930;28;20023;-79
2022/03/15 15:04:23;;;;;;;0.00;0.00;;;13.70;68.40;;;;;;5092048;28;20055;-80
2022/03/15 15:06:49;;;;;;;0.00;0.00;;;13.70;65.80;;;;;;5090779;28;20081;-81
2022/03/15 15:09:16;;;;;;;0.00;0.00;;;13.70;64.80;;;;;;5080531;28;20024;-79
2022/03/15 15:11:41;;;;;;;0.00;0.00;;;13.70;68.60;;;;;;5097269;28;20020;-80
2022/03/15 15:14:08;;;;;;;0.00;0.00;;;13.70;67.80;;;;;;5092706;28;20024;-80
2022/03/15 15:16:39;;;;;;;0.00;0.00;;;13.80;66.00;;;;;;5096255;28;20342;-80
2022/03/15 15:19:07;;;;;;;0.00;0.00;;;13.80;67.00;;;;;;5097978;28;20368;-79
2022/03/15 15:21:34;;;;;;;0.00;0.00;;;13.80;66.60;;;;;;5096992;28;20039;-74
2022/03/15 15:24:00;;;;;;;0.00;0.00;;;13.80;69.70;;;;;;5097699;28;20097;-79
2022/03/15 15:26:27;;;;;;;0.00;0.00;;;13.70;67.70;;;;;;5100907;28;20639;-79
2022/03/15 15:28:55;;;;;;;0.00;0.00;;;13.70;68.10;;;;;;5092426;28;20482;-80
2022/03/15 15:31:23;;;;;;;0.00;0.00;;;13.60;70.00;;;;;;5101303;28;20516;-81
2022/03/15 15:33:49;;;;;;;;;;;13.60;69.30;;;;;;5099049;28;20028;-79
2022/03/15 15:36:15;;;;;;;0.00;0.00;;;13.50;68.70;;;;;;5096988;28;19923;-78
2022/03/15 15:38:42;;;;;;;0.00;0.00;;;13.50;72.50;;;;;;5097173;28;20060;-74
2022/03/15 15:41:11;;;;;;;0.00;0.00;;;13.50;71.30;;;;;;5098052;28;20016;-79
2022/03/15 15:43:39;;;;;;;0.00;0.00;;;13.60;69.00;;;;;;5103534;28;20023;-78
2022/03/15 15:46:23;;;;;;;0.00;0.00;;;13.50;69.80;;;;;;5100298;28;20026;-79
2022/03/15 15:48:49;;;;;;;0.00;0.00;;;13.50;70.00;;;;;;5083807;28;20024;-76
2022/03/15 15:51:19;;;;;;;0.00;0.00;;;13.60;66.80;;;;;;5101793;28;20020;-79
2022/03/15 15:53:47;;;;;;;0.00;0.00;;;13.60;67.70;;;;;;5101179;28;20099;-80
2022/03/15 15:56:14;;;;;;;0.00;0.00;;;13.60;69.90;;;;;;5103136;28;20052;-79
2022/03/15 15:58:40;;;;;;;0.00;0.00;;;13.50;67.20;;;;;;5100649;28;20061;-79
2022/03/15 16:01:11;;;;;;;0.00;0.00;;;13.50;68.90;;;;;;5100638;28;20096;-80
2022/03/15 16:03:38;;;;;;;0.00;0.00;;;13.50;69.00;;;;;;5084310;28;20038;-80
2022/03/15 16:06:04;;;;;;;0.00;0.00;;;13.40;69.70;;;;;;5101325;28;20101;-80
2022/03/15 16:08:34;;;;;;;0.00;0.00;;;13.30;69.20;;;;;;5100618;28;20036;-80
2022/03/15 16:10:59;;;;;;;0.00;0.00;;;13.30;71.50;;;;;;5083154;28;20061;-80
2022/03/15 16:13:26;;;;;;;0.00;0.00;;;13.30;72.00;;;;;;5083126;28;20032;-80
2022/03/15 16:18:42;;;;;;;0.00;0.00;;;13.20;71.40;;;;;;5100737;28;20211;-81
2022/03/15 16:21:08;;;;;;;0.00;0.00;;;13.20;73.30;;;;;;5094701;28;20047;-79
2022/03/15 16:23:34;;;;;;;0.00;0.00;;;13.10;71.30;;;;;;5100673;28;20036;-77
2022/03/15 16:26:00;;;;;;;0.00;0.00;;;13.10;72.50;;;;;;5094429;28;20035;-80
2022/03/15 16:28:25;;;;;;;0.00;0.00;;;13.10;72.10;;;;;;5100526;28;20085;-80
2022/03/15 16:30:54;;;;;;;0.00;0.00;;;13.00;72.90;;;;;;5082105;28;20024;-79
2022/03/15 16:33:26;;;;;;;0.00;0.00;;;13.00;73.10;;;;;;5083246;28;20038;-80
2022/03/15 16:35:52;;;;;;;0.00;0.00;;;13.00;69.90;;;;;;5100239;28;20058;-80
2022/03/15 16:38:18;;;;;;;0.00;0.00;;;13.00;75.90;;;;;;5099621;28;20024;-77
2022/03/15 16:40:44;;;;;;;0.00;0.00;;;13.00;73.20;;;;;;5099410;28;20024;-80
2022/03/15 16:43:10;;;;;;;0.00;0.00;;;13.00;70.40;;;;;;5083702;28;20213;-80
2022/03/15 16:45:39;;;;;;;0.00;0.00;;;13.00;72.80;;;;;;5098968;28;20028;-77
2022/03/15 16:48:05;;;;;;;0.00;0.00;;;12.90;72.00;;;;;;5100684;28;20035;-81
2022/03/15 16:50:31;;;;;;;0.00;0.00;;;12.80;75.60;;;;;;5076871;28;20247;-76
2022/03/15 16:52:57;;;;;;;0.00;0.00;;;12.80;71.60;;;;;;5080060;28;20241;-80
2022/03/15 16:55:25;;;;;;;0.00;0.00;;;12.80;71.60;;;;;;5096597;28;20050;-81
2022/03/15 16:57:54;;;;;;;0.00;0.00;;;12.80;73.40;;;;;;5101514;28;20081;-75
2022/03/15 17:00:20;;;;;;;0.00;0.00;;;12.80;74.10;;;;;;5082137;28;20284;-79
2022/03/15 17:02:46;;;;;;;0.00;0.00;;;12.80;71.80;;;;;;5100614;28;20028;-79
2022/03/15 17:07:56;;;;;;;0.00;0.00;;;12.70;72.60;;;;;;5098293;28;20023;-80
2022/03/15 17:10:22;;;;;;;0.00;0.00;;;12.70;73.80;;;;;;5098674;28;20083;-78
2022/03/15 17:12:49;;;;;;;0.00;0.00;;;12.80;74.20;;;;;;5096236;28;20035;-80
2022/03/15 17:15:15;;;;;;;0.00;0.00;;;12.70;74.00;;;;;;5081336;28;20058;-76
2022/03/15 17:17:42;;;;;;;0.00;0.00;;;12.70;76.10;;;;;;5098151;28;20307;-77
2022/03/15 17:20:08;;;;;;;0.00;0.00;;;12.60;76.30;;;;;;5093316;28;20341;-79
2022/03/15 17:22:35;;;;;;;0.00;0.00;;;12.60;76.30;;;;;;5101076;28;20047;-73
2022/03/15 17:25:04;;;;;;;0.00;0.00;;;12.50;79.00;;;;;;5098404;28;20506;-73
2022/03/15 17:27:36;;;;;;;0.00;0.00;;;12.40;74.70;;;;;;5081127;28;20024;-79
2022/03/15 17:30:10;;;;;;;0.00;0.00;;;12.50;76.20;;;;;;5098977;28;20110;-78
2022/03/15 17:32:36;;;;;;;0.00;0.00;;;12.50;75.10;;;;;;5099091;28;20023;-78
2022/03/15 17:35:03;;;;;;;0.00;0.00;;;12.40;77.00;;;;;;5099362;28;20307;-81